»·PEaware :: N196EC KGCN-KIFP

N196EC :: KGCN-KIFP

FLIGHT INFORMATION

Flight Status: Arrived
Operator: Privately registered:
United States
More flights under this callsign
Pilot: Adrián R. (20842)
Aircraft: SOCATA TBM-900
(TBM9)
More flights by this aircraft type
Origin: KGCN Grand Canyon Natl Park
United States
Destination: KIFP Laughlin/Bullhead Intl
United States
More flights between these airports :: More routes between these airports
Route: +PARKS4 PGS
File this flight plan on PilotEdge
Remarks:
Altitude:
(Current/Filed)
16,000ft
Speed:
(Current/Filed)
280kts
Departed: 11-Nov-18 08:42 AM
Arrived: 11-Nov-18 09:22 AM
Distance/Time
Traveled:
127nm/0:40
Distance/Time
To Go:
Arrived

Flight Plot

Page will automatically refresh every two minutes.

Flight plan parsing failed; only flown route is shown


Map Options




Map Legend


Flown Route
Filed Route
Departure Airport
Arrival Airport
Navaid (VOR, NDB)
Fix

Horizontal Profiles

Position Reports

Time Latitude Longitude Heading Altitude Ground
Speed
11-Nov-18 08:06 35.961315 -112.134789 221 6604ft 0kts
11-Nov-18 08:07 35.961315 -112.134789 221 6604ft 0kts
11-Nov-18 08:08 35.961315 -112.134789 221 6604ft 0kts
11-Nov-18 08:09 35.961315 -112.134789 221 6604ft 0kts
11-Nov-18 08:10 35.961315 -112.134789 221 6604ft 0kts
11-Nov-18 08:11 35.961315 -112.134789 221 6604ft 0kts
11-Nov-18 08:12 35.961315 -112.134789 221 6604ft 0kts
11-Nov-18 08:13 35.961315 -112.134789 221 6604ft 0kts
11-Nov-18 08:14 35.961315 -112.134789 221 6604ft 0kts
11-Nov-18 08:15 35.961315 -112.134789 221 6604ft 0kts
11-Nov-18 08:16 35.961315 -112.134789 221 6604ft 0kts
11-Nov-18 08:17 35.961315 -112.134789 221 6604ft 0kts
11-Nov-18 08:18 35.961315 -112.134789 221 6604ft 0kts
11-Nov-18 08:19 35.961315 -112.134789 221 6604ft 0kts
11-Nov-18 08:20 35.961315 -112.134789 221 6604ft 0kts
11-Nov-18 08:21 35.961315 -112.134789 221 6604ft 0kts
11-Nov-18 08:22 35.961315 -112.134789 221 6604ft 0kts
11-Nov-18 08:23 35.961315 -112.134789 221 6604ft 0kts
11-Nov-18 08:24 35.961315 -112.134789 221 6604ft 0kts
11-Nov-18 08:25 35.961315 -112.134789 221 6604ft 0kts
11-Nov-18 08:26 35.961315 -112.134789 221 6604ft 0kts
11-Nov-18 08:27 35.961315 -112.134789 221 6604ft 0kts
11-Nov-18 08:28 35.961315 -112.134789 221 6604ft 0kts
11-Nov-18 08:29 35.961315 -112.134789 221 6604ft 0kts
11-Nov-18 08:30 35.961315 -112.134789 221 6604ft 0kts
11-Nov-18 08:31 35.961315 -112.134789 221 6604ft 0kts
11-Nov-18 08:32 35.961315 -112.134789 221 6604ft 0kts
11-Nov-18 08:33 35.961315 -112.134789 221 6604ft 0kts
11-Nov-18 08:34 35.961315 -112.134789 221 6604ft 0kts
11-Nov-18 08:35 35.961315 -112.134789 221 6604ft 0kts
11-Nov-18 08:36 35.961315 -112.134789 221 6604ft 0kts
11-Nov-18 08:37 35.961315 -112.134789 221 6604ft 0kts
11-Nov-18 08:38 35.961315 -112.134789 221 6604ft 0kts
11-Nov-18 08:39 35.961315 -112.134789 221 6604ft 0kts
11-Nov-18 08:40 35.961315 -112.134789 221 6604ft 0kts
11-Nov-18 08:41 35.961231 -112.135698 227 6604ft 8kts
11-Nov-18 08:42 35.961059 -112.136207 292 6604ft 0kts
11-Nov-18 08:43 35.961059 -112.136207 292 6604ft 0kts
11-Nov-18 08:44 35.961501 -112.137304 207 6604ft 8kts
11-Nov-18 08:45 35.957365 -112.141712 220 6605ft 112kts
11-Nov-18 08:46 35.924348 -112.177459 232 8477ft 169kts
11-Nov-18 08:47 35.928477 -112.238204 285 9010ft 201kts
11-Nov-18 08:48 35.924041 -112.306692 256 9664ft 185kts
11-Nov-18 08:49 35.908744 -112.369079 256 10204ft 195kts
11-Nov-18 08:50 35.893358 -112.431748 257 11870ft 191kts
11-Nov-18 08:51 35.878720 -112.493571 258 14107ft 189kts
11-Nov-18 08:52 35.863865 -112.556336 258 15996ft 200kts
11-Nov-18 08:53 35.845820 -112.632300 257 16004ft 248kts
11-Nov-18 08:54 35.826188 -112.714641 257 16002ft 257kts
11-Nov-18 08:55 35.805822 -112.799786 257 16000ft 259kts
11-Nov-18 08:56 35.785304 -112.885088 258 15999ft 260kts
11-Nov-18 08:57 35.764661 -112.970794 260 16000ft 262kts
11-Nov-18 08:58 35.743754 -113.057379 261 16004ft 266kts
11-Nov-18 08:59 35.722514 -113.145094 261 16026ft 268kts
11-Nov-18 09:00 35.701158 -113.232841 261 16047ft 268kts
11-Nov-18 09:01 35.679713 -113.320657 261 16061ft 268kts
11-Nov-18 09:02 35.658137 -113.408687 261 16061ft 268kts
11-Nov-18 09:03 35.636526 -113.496551 261 16060ft 269kts
11-Nov-18 09:04 35.607417 -113.582296 249 16061ft 277kts
11-Nov-18 09:05 35.570270 -113.663910 248 16064ft 278kts
11-Nov-18 09:06 35.532760 -113.745972 248 16092ft 278kts
11-Nov-18 09:07 35.494174 -113.830288 248 15252ft 296kts
11-Nov-18 09:08 35.453579 -113.918577 247 13468ft 297kts
11-Nov-18 09:09 35.413344 -114.005897 247 11676ft 290kts
11-Nov-18 09:10 35.373961 -114.091197 246 9872ft 286kts
11-Nov-18 09:11 35.335655 -114.173889 246 9078ft 269kts
11-Nov-18 09:12 35.299253 -114.252373 246 9081ft 262kts
11-Nov-18 09:13 35.263417 -114.329391 247 9061ft 252kts
11-Nov-18 09:14 35.230445 -114.400165 247 9045ft 232kts
11-Nov-18 09:15 35.201035 -114.460102 229 8975ft 200kts
11-Nov-18 09:16 35.146920 -114.459831 175 7861ft 201kts
11-Nov-18 09:17 35.093228 -114.451210 175 6051ft 177kts
11-Nov-18 09:18 35.059544 -114.467036 257 4178ft 119kts
11-Nov-18 09:19 35.045676 -114.502387 257 2653ft 104kts
11-Nov-18 09:20 35.050777 -114.529755 305 1879ft 96kts
11-Nov-18 09:21 35.070823 -114.544585 342 1816ft 84kts
11-Nov-18 09:22 35.091801 -114.552345 344 1734ft 72kts
11-Nov-18 09:23 35.111842 -114.555596 351 1364ft 73kts
11-Nov-18 09:24 35.131745 -114.557473 352 1016ft 73kts
11-Nov-18 09:25 35.150386 -114.559045 353 698ft 27kts
11-Nov-18 09:26 35.151326 -114.558090 84 698ft 0kts
11-Nov-18 09:27 35.151329 -114.558050 83 698ft 3kts
11-Nov-18 09:28 35.154320 -114.557919 356 698ft 16kts
11-Nov-18 09:29 35.156315 -114.556389 0 698ft 4kts
11-Nov-18 09:30 35.158295 -114.556538 356 698ft 8kts
11-Nov-18 09:31 35.160264 -114.555736 314 698ft 4kts

Navigation Log

Ident Type
Flight plan parsing failed, navigation log unavailable